Colorado Springs (COS/KCOS)

Map

Information

Location
Colorado Springs, CO
Local Time
22:27 / 10:27 pm
GMT Time
02:27 / 2:27 am
Gates
Unassigned
No FAA reported delays
METAR KCOS 280154Z 17007KT 10SM OVC065 11/03 A2985 RMK AO2 RAB10E42 SLP091 P0001 T01060028
TAF KCOS 272333Z 2800/2824 16012KT P6SM SCT060 BKN110 FM280100 13008KT P6SM VCSH SCT030 BKN050 FM281100 14010KT P6SM SCT020 BKN040 FM281600 09006KT P6SM VCSH BKN060 FM281800 10007KT P6SM VCSH BKN020 FM282100 08010KT 3SM -SHRA BKN012
  • No charts available